Time;durP1;ratioP1;P1;durP2;ratioP2;P2;SDS_P1;SDS_P2;PMS_P1;PMS_P2;Temp;Humidity;BMP_temperature;BMP_pressure;BME280_temperature;BME280_humidity;BME280_pressure;Samples;Min_cycle;Max_cycle;Signal;HPM_P1;HPM_P2
2022/07/27 00:01:05;;;;;;;1.10;1.10;;;24.80;66.80;;;;;;5090404;27;43718;-71
2022/07/27 00:03:33;;;;;;;1.00;1.00;;;24.80;66.50;;;;;;5090091;27;43870;-70
2022/07/27 00:06:01;;;;;;;0.90;0.90;;;24.70;65.90;;;;;;5083146;27;44025;-69
2022/07/27 00:08:29;;;;;;;1.00;1.00;;;24.70;66.50;;;;;;5083497;27;44019;-70
2022/07/27 00:10:58;;;;;;;1.00;1.00;;;24.70;65.90;;;;;;5078434;27;44925;-70
2022/07/27 00:13:26;;;;;;;0.93;0.93;;;24.70;67.20;;;;;;5064797;28;44666;-69
2022/07/27 00:15:54;;;;;;;0.90;0.90;;;24.60;67.10;;;;;;5083577;27;43997;-71
2022/07/27 00:18:22;;;;;;;1.10;1.10;;;24.60;66.30;;;;;;5083273;27;43696;-70
2022/07/27 00:20:50;;;;;;;1.00;1.00;;;24.60;66.10;;;;;;5082598;27;44842;-70
2022/07/27 00:23:18;;;;;;;1.00;1.00;;;24.60;66.10;;;;;;5061382;28;43861;-70
2022/07/27 00:25:46;;;;;;;0.90;0.90;;;24.60;66.50;;;;;;5083430;27;43400;-70
2022/07/27 00:28:16;;;;;;;0.90;0.90;;;24.60;67.60;;;;;;5083547;27;43962;-70
2022/07/27 00:30:44;;;;;;;1.00;1.00;;;24.60;67.50;;;;;;5089190;27;43952;-71
2022/07/27 00:33:11;;;;;;;0.90;0.90;;;24.70;67.10;;;;;;5082502;27;44060;-71
2022/07/27 00:35:44;;;;;;;0.97;0.97;;;24.90;66.90;;;;;;5083917;27;43952;-70
2022/07/27 00:38:12;;;;;;;1.00;1.00;;;25.00;66.50;;;;;;5090052;27;43451;-70
2022/07/27 00:40:40;;;;;;;1.10;1.10;;;25.00;66.10;;;;;;5089154;27;43910;-69
2022/07/27 00:43:08;;;;;;;1.00;1.00;;;25.00;66.00;;;;;;5089201;27;43989;-69
2022/07/27 00:45:39;;;;;;;1.00;1.00;;;25.00;66.00;;;;;;5102364;27;43943;-70
2022/07/27 00:48:07;;;;;;;0.93;0.93;;;24.90;65.70;;;;;;5091189;27;43976;-71
2022/07/27 00:50:35;;;;;;;1.00;1.00;;;24.80;66.70;;;;;;5109105;27;43968;-69
2022/07/27 00:53:04;;;;;;;0.90;0.90;;;24.80;67.00;;;;;;5109113;27;43982;-70
2022/07/27 00:55:32;;;;;;;1.00;1.00;;;24.80;66.70;;;;;;5109195;27;43954;-69
2022/07/27 00:58:01;;;;;;;0.97;0.97;;;24.70;66.00;;;;;;5090643;27;44071;-70
2022/07/27 01:00:28;;;;;;;1.00;1.00;;;24.70;66.00;;;;;;5108019;27;44037;-70
2022/07/27 01:02:58;;;;;;;1.00;1.00;;;24.70;66.60;;;;;;5108854;27;43367;-69
2022/07/27 01:05:29;;;;;;;1.17;1.17;;;24.70;67.60;;;;;;5108965;27;44001;-70
2022/07/27 01:08:03;;;;;;;1.00;1.00;;;24.70;67.50;;;;;;5090802;27;43517;-70
2022/07/27 01:10:31;;;;;;;1.00;1.00;;;24.80;67.20;;;;;;5108521;27;43948;-69
2022/07/27 01:12:59;;;;;;;1.30;1.30;;;24.90;66.80;;;;;;5108704;27;43975;-71
2022/07/27 01:15:27;;;;;;;0.90;0.90;;;25.00;66.40;;;;;;5109019;27;44008;-71
2022/07/27 01:17:55;;;;;;;0.90;0.90;;;25.00;66.30;;;;;;5081331;27;44013;-71
2022/07/27 01:20:25;;;;;;;0.87;0.87;;;24.90;66.30;;;;;;5088487;27;44725;-69
2022/07/27 01:22:54;;;;;;;1.00;1.00;;;24.90;66.00;;;;;;5088918;27;43956;-70
2022/07/27 01:25:22;;;;;;;1.10;1.10;;;24.80;65.70;;;;;;5088580;27;43981;-70
2022/07/27 01:27:50;;;;;;;0.90;0.90;;;24.80;67.10;;;;;;5089402;27;43389;-70
2022/07/27 01:30:29;;;;;;;0.73;0.73;;;24.70;67.10;;;;;;5088596;27;43849;-69
2022/07/27 01:33:01;;;;;;;1.00;1.00;;;24.70;66.50;;;;;;5088780;27;43756;-70
2022/07/27 01:35:29;;;;;;;0.90;0.90;;;24.70;66.20;;;;;;5088580;27;43997;-69
2022/07/27 01:37:58;;;;;;;1.00;1.00;;;24.70;66.30;;;;;;5089278;27;43901;-70
2022/07/27 01:40:26;;;;;;;1.07;1.07;;;24.60;67.60;;;;;;5088258;27;44169;-71
2022/07/27 01:42:54;;;;;;;0.80;0.80;;;24.70;67.70;;;;;;5088126;27;44011;-70
2022/07/27 01:45:22;;;;;;;1.17;1.17;;;24.70;67.40;;;;;;5088613;27;43983;-70
2022/07/27 01:47:50;;;;;;;0.80;0.80;;;24.80;67.10;;;;;;5088260;27;43415;-71
2022/07/27 01:50:18;;;;;;;1.00;1.00;;;24.90;66.70;;;;;;5088304;27;44086;-70
2022/07/27 01:52:46;;;;;;;1.00;1.00;;;24.90;66.40;;;;;;5087859;27;44045;-69
2022/07/27 01:55:15;;;;;;;0.90;0.90;;;24.90;66.40;;;;;;5088528;27;43979;-70
2022/07/27 01:57:43;;;;;;;0.80;0.80;;;24.90;65.90;;;;;;5070156;28;44064;-69
2022/07/27 02:00:12;;;;;;;1.10;1.10;;;24.80;65.80;;;;;;5088441;27;43985;-70
2022/07/27 02:02:40;;;;;;;1.00;1.00;;;24.80;67.00;;;;;;5088004;27;43892;-69
2022/07/27 02:05:10;;;;;;;0.90;0.90;;;24.70;67.30;;;;;;5088336;27;43948;-68
2022/07/27 02:07:39;;;;;;;0.80;0.80;;;24.70;67.00;;;;;;5088718;27;44007;-70
2022/07/27 02:10:07;;;;;;;0.90;0.90;;;24.70;66.50;;;;;;5088441;27;43839;-70
2022/07/27 02:12:36;;;;;;;0.90;0.90;;;24.70;66.40;;;;;;5088195;27;43429;-69
2022/07/27 02:15:06;;;;;;;1.00;1.00;;;24.60;67.20;;;;;;5069930;28;43917;-71
2022/07/27 02:17:34;;;;;;;1.10;1.10;;;24.60;67.90;;;;;;5108156;27;44304;-70
2022/07/27 02:20:02;;;;;;;1.10;1.10;;;24.70;67.70;;;;;;5089221;27;46217;-70
2022/07/27 02:22:30;;;;;;;0.97;0.97;;;24.80;67.40;;;;;;5081325;27;43866;-70
2022/07/27 02:24:58;;;;;;;1.10;1.10;;;24.90;67.10;;;;;;5081246;27;43942;-70
2022/07/27 02:27:26;;;;;;;0.90;0.90;;;24.90;66.60;;;;;;5081412;27;43444;-70
2022/07/27 02:29:56;;;;;;;1.00;1.00;;;25.00;66.60;;;;;;5080976;27;44008;-70
2022/07/27 02:32:24;;;;;;;0.90;0.90;;;24.90;66.40;;;;;;5081246;27;43999;-71
2022/07/27 02:34:52;;;;;;;0.90;0.90;;;24.80;66.00;;;;;;5081352;27;43428;-71
2022/07/27 02:37:20;;;;;;;0.80;0.80;;;24.80;66.10;;;;;;5081450;27;43891;-70
2022/07/27 02:39:48;;;;;;;1.10;1.10;;;24.70;67.40;;;;;;5080860;27;44087;-70
2022/07/27 02:42:16;;;;;;;1.00;1.00;;;24.70;67.40;;;;;;5080498;27;44029;-69
2022/07/27 02:44:44;;;;;;;0.90;0.90;;;24.70;66.70;;;;;;5081125;27;43302;-71
2022/07/27 02:47:14;;;;;;;0.90;0.90;;;24.70;66.50;;;;;;5081440;27;44039;-70
2022/07/27 02:49:42;;;;;;;1.00;1.00;;;24.70;67.20;;;;;;5081506;27;43956;-69
2022/07/27 02:52:10;;;;;;;0.80;0.80;;;24.60;67.60;;;;;;5087458;27;43854;-69
2022/07/27 02:54:38;;;;;;;0.93;0.93;;;24.60;67.90;;;;;;5088170;27;44003;-71
2022/07/27 02:57:06;;;;;;;1.10;1.10;;;24.70;67.70;;;;;;5087975;27;44056;-70
2022/07/27 02:59:34;;;;;;;1.00;1.00;;;24.80;67.50;;;;;;5087518;27;43983;-70
2022/07/27 03:02:02;;;;;;;1.00;1.00;;;24.90;67.00;;;;;;5087215;27;44048;-71
2022/07/27 03:04:31;;;;;;;0.97;0.97;;;24.90;66.80;;;;;;5087366;27;43523;-70
2022/07/27 03:06:59;;;;;;;1.00;1.00;;;24.90;66.70;;;;;;5107084;27;43893;-71
2022/07/27 03:09:27;;;;;;;0.80;0.80;;;24.90;67.10;;;;;;5086520;27;44958;-69
2022/07/27 03:12:00;;;;;;;1.10;1.10;;;24.80;66.10;;;;;;5087266;27;43865;-70
2022/07/27 03:14:28;;;;;;;1.00;1.00;;;24.80;67.10;;;;;;5087379;27;44019;-70
2022/07/27 03:16:56;;;;;;;0.80;0.80;;;24.70;67.50;;;;;;5087570;27;43630;-71
2022/07/27 03:19:24;;;;;;;0.80;0.80;;;24.70;67.20;;;;;;5087186;27;44236;-69
2022/07/27 03:21:58;;;;;;;0.80;0.80;;;24.70;66.60;;;;;;5087195;27;44157;-70
2022/07/27 03:24:26;;;;;;;1.00;1.00;;;24.70;66.60;;;;;;5087170;27;43966;-69
2022/07/27 03:26:54;;;;;;;0.90;0.90;;;24.60;67.40;;;;;;5087375;27;44052;-70
2022/07/27 03:29:22;;;;;;;0.77;0.77;;;24.60;67.80;;;;;;5086957;27;43572;-71
2022/07/27 03:31:50;;;;;;;0.80;0.80;;;24.60;67.40;;;;;;5086929;27;43308;-70
2022/07/27 03:34:18;;;;;;;0.80;0.80;;;24.60;66.90;;;;;;5087191;27;43382;-70
2022/07/27 03:36:46;;;;;;;0.83;0.83;;;24.60;66.70;;;;;;5087335;27;43988;-70
2022/07/27 03:39:15;;;;;;;0.90;0.90;;;24.50;67.90;;;;;;5086783;27;43884;-70
2022/07/27 03:41:43;;;;;;;0.90;0.90;;;24.60;68.20;;;;;;5086484;27;43487;-71
2022/07/27 03:44:11;;;;;;;1.00;1.00;;;24.70;68.10;;;;;;5086913;27;44013;-70
2022/07/27 03:46:39;;;;;;;0.80;0.80;;;24.70;67.70;;;;;;5086994;27;43951;-70
2022/07/27 03:49:07;;;;;;;0.80;0.80;;;24.80;67.20;;;;;;5086945;27;43875;-70
2022/07/27 03:51:42;;;;;;;0.70;0.70;;;24.90;67.00;;;;;;5086631;27;44026;-70
2022/07/27 03:54:09;;;;;;;0.80;0.80;;;25.00;66.70;;;;;;5086762;27;44044;-71
2022/07/27 03:56:39;;;;;;;0.93;0.93;;;24.90;66.40;;;;;;5087352;27;43967;-69
2022/07/27 03:59:07;;;;;;;0.80;0.80;;;24.80;65.40;;;;;;5086787;27;44670;-70
2022/07/27 04:01:35;;;;;;;1.00;0.80;;;24.80;66.70;;;;;;5086567;27;43976;-71
2022/07/27 04:04:03;;;;;;;0.90;0.90;;;24.80;67.20;;;;;;5086683;27;43883;-70
2022/07/27 04:06:32;;;;;;;0.80;0.80;;;24.70;66.90;;;;;;5087032;27;44061;-69
2022/07/27 04:08:59;;;;;;;0.80;0.80;;;24.70;66.10;;;;;;5086595;27;44065;-70
2022/07/27 04:11:35;;;;;;;0.90;0.90;;;24.70;66.20;;;;;;5071381;27;44523;-71
2022/07/27 04:14:10;;;;;;;0.87;0.87;;;24.60;66.20;;;;;;5106459;27;43929;-70
2022/07/27 04:16:40;;;;;;;0.87;0.87;;;24.60;67.70;;;;;;5106792;27;43836;-70
2022/07/27 04:19:08;;;;;;;0.80;0.80;;;24.70;67.50;;;;;;5106308;27;45017;-70
2022/07/27 04:21:36;;;;;;;0.90;0.90;;;24.70;67.00;;;;;;5109033;27;43380;-70
2022/07/27 04:24:05;;;;;;;0.90;0.90;;;24.80;66.20;;;;;;5109950;27;43955;-70
2022/07/27 04:26:33;;;;;;;0.80;0.80;;;24.90;66.30;;;;;;5110271;27;44034;-70
2022/07/27 04:29:01;;;;;;;0.90;0.90;;;24.90;66.10;;;;;;5096592;27;43886;-70
2022/07/27 04:31:31;;;;;;;0.70;0.70;;;24.90;66.10;;;;;;5090019;27;43952;-70
2022/07/27 04:33:59;;;;;;;0.83;0.83;;;24.80;65.80;;;;;;5071376;28;43948;-71
2022/07/27 04:36:27;;;;;;;0.90;0.90;;;24.80;66.10;;;;;;5090184;27;43944;-69
2022/07/27 04:38:55;;;;;;;0.80;0.80;;;24.70;67.20;;;;;;5089864;27;43956;-70
2022/07/27 04:41:23;;;;;;;0.93;0.93;;;24.70;67.10;;;;;;5089098;27;43909;-70
2022/07/27 04:43:57;;;;;;;0.70;0.70;;;24.70;66.30;;;;;;5089781;27;43909;-69
2022/07/27 04:46:25;;;;;;;0.90;0.90;;;24.60;66.10;;;;;;5090138;27;43372;-71
2022/07/27 04:48:56;;;;;;;1.00;1.00;;;24.60;67.00;;;;;;5089929;27;43908;-70
2022/07/27 04:51:24;;;;;;;0.90;0.90;;;24.60;67.40;;;;;;5109125;27;43937;-70
2022/07/27 04:53:55;;;;;;;0.70;0.70;;;24.60;67.60;;;;;;5083286;27;43957;-70
2022/07/27 04:56:25;;;;;;;0.90;0.90;;;24.70;67.50;;;;;;5089999;27;44099;-70
2022/07/27 04:58:54;;;;;;;0.77;0.77;;;24.70;66.80;;;;;;5088995;27;43937;-70
2022/07/27 05:01:24;;;;;;;0.70;0.70;;;24.80;66.10;;;;;;5089106;27;44026;-70
2022/07/27 05:03:52;;;;;;;0.90;0.90;;;24.90;66.50;;;;;;5091027;27;44056;-69
2022/07/27 05:06:22;;;;;;;0.90;0.90;;;24.90;66.20;;;;;;5109356;27;43979;-70
2022/07/27 05:08:50;;;;;;;0.83;0.83;;;24.80;65.90;;;;;;5108002;27;44039;-70
2022/07/27 05:11:18;;;;;;;0.90;0.90;;;24.80;65.90;;;;;;5108150;27;44093;-70
2022/07/27 05:13:45;;;;;;;0.80;0.80;;;24.70;67.80;;;;;;5108174;27;43935;-70
2022/07/27 05:16:13;;;;;;;0.73;0.73;;;24.70;67.20;;;;;;5109385;27;43352;-70
2022/07/27 05:18:41;;;;;;;0.83;0.83;;;24.70;66.60;;;;;;5108420;27;43922;-70
2022/07/27 05:21:09;;;;;;;1.00;1.00;;;24.70;66.40;;;;;;5108651;27;43794;-70
2022/07/27 05:23:39;;;;;;;0.80;0.80;;;24.60;66.50;;;;;;5109071;27;43901;-70
2022/07/27 05:26:07;;;;;;;0.80;0.80;;;24.60;67.90;;;;;;5109331;27;43463;-70
2022/07/27 05:28:35;;;;;;;0.80;0.80;;;24.60;67.70;;;;;;5108672;27;43930;-69
2022/07/27 05:31:03;;;;;;;0.70;0.70;;;24.60;66.80;;;;;;5107747;27;44041;-71
2022/07/27 05:33:31;;;;;;;0.70;0.70;;;24.60;66.60;;;;;;5108394;27;43975;-69
2022/07/27 05:35:58;;;;;;;1.00;1.00;;;24.50;66.80;;;;;;5109279;27;43418;-70
2022/07/27 05:38:27;;;;;;;0.80;0.80;;;24.50;67.90;;;;;;5089476;27;45598;-69
2022/07/27 05:40:57;;;;;;;0.90;0.90;;;24.60;67.90;;;;;;5108143;27;43995;-69
2022/07/27 05:43:25;;;;;;;0.70;0.70;;;24.70;67.70;;;;;;5108331;27;43948;-70
2022/07/27 05:45:52;;;;;;;0.80;0.80;;;24.80;67.20;;;;;;5101389;27;43991;-69
2022/07/27 05:48:21;;;;;;;1.00;0.90;;;24.90;66.90;;;;;;5108460;27;43986;-69
2022/07/27 05:50:48;;;;;;;1.00;1.00;;;24.90;66.60;;;;;;5105263;27;43458;-70
2022/07/27 05:53:17;;;;;;;0.80;0.80;;;24.90;66.50;;;;;;5088743;27;43818;-69
2022/07/27 05:55:45;;;;;;;0.80;0.80;;;24.80;66.40;;;;;;5087715;27;43969;-70
2022/07/27 05:58:28;;;;;;;0.90;0.90;;;24.80;66.20;;;;;;5088373;27;43992;-69
2022/07/27 06:00:56;;;;;;;0.80;0.80;;;24.70;67.30;;;;;;5092998;27;43950;-71
2022/07/27 06:03:24;;;;;;;0.60;0.60;;;24.70;66.90;;;;;;5090610;27;43905;-71
2022/07/27 06:07:57;;;;;;;0.70;0.70;;;24.70;66.40;;;;;;5100068;27;43443;-70
2022/07/27 06:08:39;;;;;;;0.80;0.80;;;24.70;66.10;;;;;;5107881;27;44851;-69
2022/07/27 06:11:07;;;;;;;0.90;0.90;;;24.60;66.50;;;;;;5108355;27;43887;-70
2022/07/27 06:13:37;;;;;;;0.90;0.90;;;24.60;67.70;;;;;;5108356;27;43920;-69
2022/07/27 06:16:09;;;;;;;0.70;0.70;;;24.60;67.60;;;;;;5108418;27;43342;-69
2022/07/27 06:18:37;;;;;;;0.90;0.90;;;24.60;66.70;;;;;;5107983;27;43841;-70
2022/07/27 06:21:05;;;;;;;0.70;0.70;;;24.50;66.50;;;;;;5107799;27;43883;-70
2022/07/27 06:23:33;;;;;;;0.80;0.80;;;24.50;66.50;;;;;;5089377;27;43430;-70
2022/07/27 06:26:01;;;;;;;0.90;0.90;;;24.50;68.00;;;;;;5108358;27;43375;-69
2022/07/27 06:28:29;;;;;;;0.80;0.80;;;24.50;68.00;;;;;;5106802;27;44975;-71
2022/07/27 06:30:58;;;;;;;0.80;0.80;;;24.70;67.80;;;;;;5087825;27;43961;-70
2022/07/27 06:33:28;;;;;;;0.90;0.90;;;24.70;67.20;;;;;;5096412;27;43940;-70
2022/07/27 06:35:56;;;;;;;0.73;0.73;;;24.80;66.90;;;;;;5107783;27;43591;-70
2022/07/27 06:38:25;;;;;;;0.80;0.80;;;24.90;66.60;;;;;;5106023;27;43836;-70
2022/07/27 06:40:53;;;;;;;0.80;0.80;;;24.90;66.50;;;;;;5087731;27;44114;-70
2022/07/27 06:43:21;;;;;;;0.53;0.53;;;24.90;66.50;;;;;;5068244;27;43903;-70
2022/07/27 06:45:49;;;;;;;0.77;0.77;;;24.80;66.20;;;;;;5089808;27;43387;-70
2022/07/27 06:48:20;;;;;;;0.70;0.70;;;24.70;67.40;;;;;;5107342;27;45081;-71
2022/07/27 06:50:48;;;;;;;0.83;0.83;;;24.70;67.40;;;;;;5106559;27;44061;-70
2022/07/27 06:53:16;;;;;;;0.80;0.80;;;24.70;66.90;;;;;;5107468;27;44127;-71
2022/07/27 06:55:48;;;;;;;0.80;0.80;;;24.70;66.50;;;;;;5107846;27;43337;-71
2022/07/27 06:58:16;;;;;;;1.03;0.80;;;24.60;66.70;;;;;;5106753;27;44094;-69
2022/07/27 07:00:44;;;;;;;0.70;0.70;;;24.60;67.90;;;;;;5107460;27;43408;-70
2022/07/27 07:03:14;;;;;;;0.60;0.60;;;24.60;67.70;;;;;;5107540;27;44105;-70
2022/07/27 07:05:44;;;;;;;0.70;0.70;;;24.50;66.90;;;;;;5107653;27;43363;-69
2022/07/27 07:08:13;;;;;;;0.70;0.70;;;24.50;66.70;;;;;;5107035;27;43896;-69
2022/07/27 07:10:42;;;;;;;0.60;0.60;;;24.50;67.70;;;;;;5106807;27;43890;-69
2022/07/27 07:13:10;;;;;;;0.70;0.70;;;24.50;69.10;;;;;;5107190;27;43878;-70
2022/07/27 07:15:39;;;;;;;0.70;0.70;;;24.60;68.20;;;;;;5107388;27;43864;-70
2022/07/27 07:18:07;;;;;;;0.80;0.80;;;24.70;67.80;;;;;;5107209;27;43937;-70
2022/07/27 07:20:35;;;;;;;0.70;0.70;;;24.80;67.50;;;;;;5107164;27;43957;-69
2022/07/27 07:23:05;;;;;;;0.70;0.70;;;24.80;67.10;;;;;;5107356;27;43427;-70
2022/07/27 07:25:33;;;;;;;0.70;0.70;;;24.90;67.00;;;;;;5107254;27;43817;-70
2022/07/27 07:28:01;;;;;;;0.80;0.80;;;24.80;66.80;;;;;;5106834;27;43968;-70
2022/07/27 07:30:29;;;;;;;0.53;0.53;;;24.80;66.50;;;;;;5107083;27;43961;-70
2022/07/27 07:32:57;;;;;;;0.90;0.90;;;24.70;67.50;;;;;;5107098;27;43947;-71
2022/07/27 07:35:27;;;;;;;0.70;0.70;;;24.70;67.70;;;;;;5107360;27;44097;-69
2022/07/27 07:37:55;;;;;;;0.70;0.70;;;24.70;67.60;;;;;;5094873;27;43830;-71
2022/07/27 07:40:24;;;;;;;0.60;0.60;;;24.70;66.90;;;;;;5104566;27;44232;-70
2022/07/27 07:43:11;;;;;;;0.70;0.70;;;24.60;66.70;;;;;;5106468;27;43347;-70
2022/07/27 07:45:39;;;;;;;0.80;0.80;;;24.50;68.00;;;;;;5093869;27;43959;-70
2022/07/27 07:48:19;;;;;;;0.70;0.70;;;24.50;68.00;;;;;;5087055;27;43782;-70
2022/07/27 07:50:47;;;;;;;0.60;0.60;;;24.50;67.50;;;;;;5086985;27;44012;-71
2022/07/27 07:53:20;;;;;;;1.17;0.70;;;24.50;67.00;;;;;;5086981;27;43825;-70
2022/07/27 07:55:49;;;;;;;0.80;0.80;;;24.50;66.90;;;;;;5074750;27;43947;-70
2022/07/27 07:58:18;;;;;;;0.60;0.60;;;24.50;68.20;;;;;;5100535;27;43946;-70
2022/07/27 08:00:48;;;;;;;0.70;0.70;;;24.50;68.40;;;;;;5090302;27;43379;-69
2022/07/27 08:03:16;;;;;;;0.70;0.70;;;24.60;68.20;;;;;;5097420;27;43407;-69
2022/07/27 08:05:44;;;;;;;0.60;0.60;;;24.70;67.80;;;;;;5090575;27;44055;-70
2022/07/27 08:08:12;;;;;;;0.60;0.60;;;24.80;67.40;;;;;;5090031;27;43952;-69
2022/07/27 08:10:40;;;;;;;0.70;0.70;;;24.80;67.10;;;;;;5090598;27;43424;-70
2022/07/27 08:13:09;;;;;;;0.80;0.80;;;24.90;67.00;;;;;;5090649;27;43419;-71
2022/07/27 08:15:37;;;;;;;0.90;0.90;;;24.80;66.90;;;;;;5090545;27;43991;-70
2022/07/27 08:18:05;;;;;;;0.80;0.80;;;24.80;66.50;;;;;;5090293;27;43930;-70
2022/07/27 08:20:33;;;;;;;0.60;0.60;;;24.70;67.80;;;;;;5097184;27;43824;-70
2022/07/27 08:23:01;;;;;;;0.90;0.90;;;24.70;67.70;;;;;;5090022;27;43964;-71
2022/07/27 08:25:30;;;;;;;0.70;0.70;;;24.60;67.10;;;;;;5090459;27;44026;-69
2022/07/27 08:27:58;;;;;;;0.70;0.70;;;24.60;66.80;;;;;;5089920;27;43895;-70
2022/07/27 08:30:27;;;;;;;0.77;0.77;;;24.60;67.00;;;;;;5100231;27;43932;-69
2022/07/27 08:32:59;;;;;;;0.63;0.63;;;24.50;68.30;;;;;;5086800;28;44075;-69
2022/07/27 08:35:28;;;;;;;0.70;0.70;;;24.60;68.40;;;;;;5090460;27;44066;-71
2022/07/27 08:37:56;;;;;;;0.77;0.77;;;24.70;68.00;;;;;;5089514;27;43669;-70
2022/07/27 08:40:24;;;;;;;0.60;0.60;;;24.80;67.70;;;;;;5094061;27;43875;-70
2022/07/27 08:43:08;;;;;;;0.90;0.90;;;24.80;67.40;;;;;;5091040;27;43466;-70
2022/07/27 08:45:40;;;;;;;0.70;0.70;;;24.80;67.20;;;;;;5090487;27;43434;-69
2022/07/27 08:48:11;;;;;;;0.70;0.70;;;24.70;67.40;;;;;;5083802;27;43969;-70
2022/07/27 08:50:39;;;;;;;0.80;0.80;;;24.70;66.70;;;;;;5096290;27;44028;-70
2022/07/27 08:53:10;;;;;;;0.70;0.70;;;24.70;68.00;;;;;;5085383;27;43971;-69
2022/07/27 08:55:39;;;;;;;0.73;0.73;;;24.60;67.40;;;;;;5109932;27;44042;-70
2022/07/27 08:58:07;;;;;;;0.60;0.60;;;24.60;67.00;;;;;;5109302;27;44971;-71
2022/07/27 09:00:39;;;;;;;0.73;0.73;;;24.50;66.90;;;;;;5084249;27;45290;-69
2022/07/27 09:03:07;;;;;;;0.60;0.60;;;24.50;67.90;;;;;;5109393;27;44011;-70
2022/07/27 09:05:41;;;;;;;0.87;0.87;;;24.50;68.30;;;;;;5109003;27;43904;-71
2022/07/27 09:08:10;;;;;;;0.70;0.70;;;24.50;67.50;;;;;;5108969;27;44118;-69
2022/07/27 09:10:38;;;;;;;0.60;0.60;;;24.50;67.20;;;;;;5109207;27;44117;-70
2022/07/27 09:13:19;;;;;;;0.60;0.60;;;24.40;66.90;;;;;;5109382;27;43955;-71
2022/07/27 09:15:50;;;;;;;0.60;0.60;;;24.40;68.20;;;;;;5109347;27;43971;-70
2022/07/27 09:18:39;;;;;;;0.70;0.70;;;24.40;68.60;;;;;;5094247;27;43886;-69
2022/07/27 09:21:09;;;;;;;0.70;0.70;;;24.50;69.00;;;;;;5090474;27;43843;-70
2022/07/27 09:23:37;;;;;;;0.87;0.87;;;24.60;67.90;;;;;;5093909;27;43968;-69
2022/07/27 09:26:16;;;;;;;0.73;0.73;;;24.80;67.50;;;;;;5086004;27;43824;-70
2022/07/27 09:29:00;;;;;;;0.80;0.80;;;24.80;67.20;;;;;;5108505;27;43842;-70
2022/07/27 09:31:29;;;;;;;0.70;0.70;;;24.80;67.00;;;;;;5108829;27;44118;-70
2022/07/27 09:33:58;;;;;;;0.77;0.77;;;24.80;66.20;;;;;;5108771;27;43900;-70
2022/07/27 09:36:28;;;;;;;0.50;0.50;;;24.70;67.30;;;;;;5109186;27;44007;-71
2022/07/27 09:38:57;;;;;;;0.60;0.60;;;24.70;67.90;;;;;;5108027;27;45093;-71
2022/07/27 09:41:39;;;;;;;0.60;0.60;;;24.70;67.70;;;;;;5089751;27;44735;-70
2022/07/27 09:44:07;;;;;;;0.70;0.70;;;24.60;67.00;;;;;;5094619;27;43946;-69
2022/07/27 09:46:56;;;;;;;0.77;0.77;;;24.50;66.70;;;;;;5089179;27;43751;-69
2022/07/27 09:49:28;;;;;;;0.70;0.70;;;24.50;68.00;;;;;;5088984;27;43902;-70
2022/07/27 09:51:56;;;;;;;0.80;0.80;;;24.50;68.30;;;;;;5107171;27;43795;-70
2022/07/27 09:54:28;;;;;;;0.80;0.80;;;24.60;68.00;;;;;;5090058;27;43993;-69
2022/07/27 09:57:00;;;;;;;0.90;0.90;;;24.70;67.80;;;;;;5108634;27;44018;-70
2022/07/27 09:59:28;;;;;;;0.83;0.83;;;24.70;67.50;;;;;;5108355;27;45145;-71
2022/07/27 10:01:59;;;;;;;1.50;1.00;;;24.80;67.20;;;;;;5108129;27;43962;-69
2022/07/27 10:04:27;;;;;;;0.60;0.60;;;24.80;66.80;;;;;;5108420;27;43889;-71
2022/07/27 10:06:55;;;;;;;0.70;0.70;;;24.80;66.40;;;;;;5089823;27;44007;-70
2022/07/27 10:09:38;;;;;;;0.70;0.70;;;24.70;67.00;;;;;;5106582;27;43735;-71
2022/07/27 10:12:07;;;;;;;1.00;1.00;;;24.70;67.70;;;;;;5088713;27;43986;-69
2022/07/27 10:14:35;;;;;;;0.73;0.73;;;24.60;67.20;;;;;;5070137;27;43941;-70
2022/07/27 10:17:05;;;;;;;0.77;0.77;;;24.60;66.80;;;;;;5103389;27;44071;-69
2022/07/27 10:19:36;;;;;;;0.70;0.70;;;24.60;66.70;;;;;;5107790;27;43752;-69
2022/07/27 10:22:04;;;;;;;0.80;0.80;;;24.60;67.90;;;;;;5107923;27;43487;-71
2022/07/27 10:24:35;;;;;;;0.90;0.90;;;24.50;68.20;;;;;;5089090;27;43963;-70
2022/07/27 10:27:18;;;;;;;0.77;0.77;;;24.60;68.00;;;;;;5107883;27;44020;-71
2022/07/27 10:29:46;;;;;;;0.83;0.83;;;24.70;67.60;;;;;;5106493;27;44086;-70
2022/07/27 10:32:22;;;;;;;0.90;0.90;;;24.80;67.20;;;;;;5077951;28;45074;-68
2022/07/27 10:34:50;;;;;;;0.80;0.80;;;24.80;66.60;;;;;;5088021;27;43771;-71
2022/07/27 10:37:24;;;;;;;0.83;0.83;;;24.80;66.50;;;;;;5094471;27;43931;-69
2022/07/27 10:40:32;;;;;;;0.90;0.90;;;24.70;66.20;;;;;;5080699;27;43984;-70
2022/07/27 10:42:42;;;;;;;0.80;0.80;;;24.70;67.40;;;;;;5087473;27;44106;-70
2022/07/27 10:45:11;;;;;;;0.70;0.70;;;24.70;67.50;;;;;;5091210;27;43904;-70
2022/07/27 10:47:42;;;;;;;0.80;0.80;;;24.60;67.00;;;;;;5107695;27;43964;-69
2022/07/27 10:50:23;;;;;;;0.87;0.87;;;24.60;66.60;;;;;;5107464;27;44033;-71
2022/07/27 10:52:52;;;;;;;0.90;0.90;;;24.60;67.20;;;;;;5107348;27;43879;-71
2022/07/27 10:55:57;;;;;;;0.80;0.80;;;24.50;67.60;;;;;;5107119;27;44032;-69
2022/07/27 10:58:50;;;;;;;0.90;0.90;;;24.50;67.10;;;;;;5107549;27;44033;-69
2022/07/27 11:01:18;;;;;;;1.10;1.10;;;24.50;66.40;;;;;;5082559;27;44145;-69
2022/07/27 11:03:54;;;;;;;1.00;1.00;;;24.50;66.80;;;;;;5107377;27;43809;-69
2022/07/27 11:06:27;;;;;;;0.80;0.80;;;24.50;67.90;;;;;;5107417;27;43805;-69
2022/07/27 11:09:14;;;;;;;1.00;1.00;;;24.50;67.80;;;;;;5100985;27;43430;-70
2022/07/27 11:12:03;;;;;;;0.90;0.90;;;24.60;67.70;;;;;;5107053;27;44037;-69
2022/07/27 11:14:31;;;;;;;1.10;1.10;;;24.70;67.30;;;;;;5107045;27;44070;-69
2022/07/27 11:16:59;;;;;;;0.90;0.90;;;24.80;67.00;;;;;;5107293;27;44007;-71
2022/07/27 11:19:53;;;;;;;1.10;1.10;;;24.90;67.00;;;;;;5090132;27;43489;-70
2022/07/27 11:22:31;;;;;;;0.97;0.97;;;24.80;66.60;;;;;;5087297;27;43906;-70
2022/07/27 11:25:19;;;;;;;0.90;0.90;;;24.80;66.80;;;;;;5087295;27;44015;-70
2022/07/27 11:27:48;;;;;;;0.77;0.77;;;24.70;67.50;;;;;;5069052;27;44014;-71
2022/07/27 11:30:23;;;;;;;0.90;0.90;;;24.70;67.50;;;;;;5089952;27;43937;-72
2022/07/27 11:32:52;;;;;;;0.77;0.77;;;24.70;66.80;;;;;;5091105;27;43865;-70
2022/07/27 11:35:21;;;;;;;1.00;1.00;;;24.70;66.60;;;;;;5090913;27;43902;-70
2022/07/27 11:37:59;;;;;;;0.90;0.90;;;24.60;67.40;;;;;;5094086;27;43467;-70
2022/07/27 11:40:27;;;;;;;0.97;0.97;;;24.60;67.90;;;;;;5092221;27;43965;-70
2022/07/27 11:43:31;;;;;;;0.90;0.90;;;24.50;67.10;;;;;;5090399;27;44035;-70
2022/07/27 11:46:12;;;;;;;1.00;1.00;;;24.50;66.90;;;;;;5107217;27;43959;-70
2022/07/27 11:48:46;;;;;;;0.80;0.80;;;24.50;67.20;;;;;;5110196;27;44043;-70
2022/07/27 11:51:34;;;;;;;1.00;1.00;;;24.50;68.30;;;;;;5110812;27;43948;-70
2022/07/27 11:54:03;;;;;;;0.83;0.83;;;24.50;68.10;;;;;;5110180;27;43904;-69
2022/07/27 11:56:33;;;;;;;0.97;0.90;;;24.60;68.00;;;;;;5110051;27;43948;-70
2022/07/27 11:59:13;;;;;;;1.00;1.00;;;24.70;67.70;;;;;;5110295;27;43908;-69
2022/07/27 12:01:45;;;;;;;1.00;0.80;;;24.80;67.30;;;;;;5110533;27;43385;-70
2022/07/27 12:04:24;;;;;;;0.70;0.70;;;24.90;67.10;;;;;;5099177;27;43724;-70
2022/07/27 12:07:05;;;;;;;0.80;0.80;;;24.80;66.40;;;;;;5109624;27;43959;-70
2022/07/27 12:09:34;;;;;;;0.80;0.80;;;24.80;66.80;;;;;;5102631;27;43941;-70
2022/07/27 12:12:13;;;;;;;0.73;0.73;;;24.70;67.50;;;;;;5091090;27;43853;-70
2022/07/27 12:14:42;;;;;;;0.97;0.97;;;24.70;67.00;;;;;;5090030;27;43996;-70
2022/07/27 12:17:15;;;;;;;0.80;0.80;;;24.70;67.40;;;;;;5090535;27;43358;-69
2022/07/27 12:19:44;;;;;;;1.27;0.93;;;24.60;66.70;;;;;;5090301;27;43995;-69
2022/07/27 12:22:13;;;;;;;0.80;0.80;;;24.60;67.70;;;;;;5099963;27;44041;-70
2022/07/27 12:24:42;;;;;;;0.90;0.90;;;24.60;67.60;;;;;;5091120;27;45716;-70
2022/07/27 12:27:12;;;;;;;1.10;1.10;;;24.50;67.00;;;;;;5087208;28;44619;-69
2022/07/27 12:29:57;;;;;;;1.00;1.00;;;24.50;66.80;;;;;;5090162;27;43873;-70
2022/07/27 12:32:25;;;;;;;1.00;1.00;;;24.50;67.50;;;;;;5110139;27;43903;-70
2022/07/27 12:34:53;;;;;;;0.80;0.80;;;24.50;68.20;;;;;;5109652;27;43756;-70
2022/07/27 12:37:23;;;;;;;0.80;0.80;;;24.50;68.20;;;;;;5083003;27;43956;-70
2022/07/27 12:39:52;;;;;;;0.70;0.70;;;24.60;67.90;;;;;;5082836;27;43983;-71
2022/07/27 12:42:20;;;;;;;1.93;0.90;;;24.70;67.20;;;;;;5082401;27;43953;-69
2022/07/27 12:44:49;;;;;;;0.90;0.90;;;24.80;66.80;;;;;;5082526;27;44054;-70
2022/07/27 12:50:07;;;;;;;0.80;0.80;;;24.80;66.60;;;;;;5089879;27;43973;-71
2022/07/27 12:52:37;;;;;;;0.90;0.90;;;24.70;66.10;;;;;;5090178;27;43849;-69
2022/07/27 12:55:07;;;;;;;0.90;0.90;;;24.70;66.90;;;;;;5089694;27;44709;-70
2022/07/27 12:57:42;;;;;;;1.30;0.90;;;24.70;66.70;;;;;;5089713;27;44040;-70
2022/07/27 13:00:28;;;;;;;0.80;0.80;;;24.60;66.10;;;;;;5089482;27;43943;-71
2022/07/27 13:03:01;;;;;;;1.13;1.10;;;24.60;66.00;;;;;;5084640;27;43815;-70
2022/07/27 13:05:31;;;;;;;1.00;1.00;;;24.50;67.00;;;;;;5070874;27;46188;-69
2022/07/27 13:08:00;;;;;;;0.80;0.80;;;24.50;67.50;;;;;;5089418;27;43931;-71